Time;durP1;ratioP1;P1;durP2;ratioP2;P2;SDS_P1;SDS_P2;PMS_P1;PMS_P2;Temp;Humidity;BMP_temperature;BMP_pressure;BME280_temperature;BME280_humidity;BME280_pressure;Samples;Min_cycle;Max_cycle;Signal;HPM_P1;HPM_P2
2022/04/07 00:01:15;;;;;;;;;;;10.40;99.90;;;;;;5049995;28;19925;-72
2022/04/07 00:03:42;;;;;;;;;;;10.30;99.90;;;;;;5049658;28;19925;-75
2022/04/07 00:06:10;;;;;;;;;;;10.40;99.90;;;;;;5049491;28;19952;-75
2022/04/07 00:08:37;;;;;;;;;;;10.50;99.90;;;;;;5049801;28;19924;-74
2022/04/07 00:11:05;;;;;;;;;;;10.40;99.90;;;;;;5049586;28;19929;-74
2022/04/07 00:13:32;;;;;;;;;;;10.50;99.90;;;;;;5050015;28;19925;-73
2022/04/07 00:15:59;;;;;;;;;;;10.40;99.90;;;;;;5050310;28;19925;-74
2022/04/07 00:18:26;;;;;;;;;;;10.40;99.90;;;;;;5050196;28;19931;-74
2022/04/07 00:20:53;;;;;;;;;;;10.40;99.90;;;;;;5049994;28;19987;-74
2022/04/07 00:23:20;;;;;;;;;;;10.40;99.90;;;;;;5050014;28;20008;-73
2022/04/07 00:25:47;;;;;;;;;;;10.40;99.90;;;;;;5049519;28;19928;-72
2022/04/07 00:28:16;;;;;;;;;;;10.30;99.90;;;;;;5050047;28;19925;-75
2022/04/07 00:30:43;;;;;;;;;;;10.30;99.90;;;;;;5049568;28;19929;-75
2022/04/07 00:33:10;;;;;;;;;;;10.30;99.90;;;;;;5049770;28;19925;-73
2022/04/07 00:35:38;;;;;;;;;;;10.30;99.90;;;;;;5049742;28;19925;-74
2022/04/07 00:38:05;;;;;;;;;;;10.40;99.90;;;;;;5050118;28;19925;-74
2022/04/07 00:40:32;;;;;;;;;;;10.40;99.90;;;;;;5049342;28;19925;-74
2022/04/07 00:42:58;;;;;;;;;;;10.30;99.90;;;;;;5049644;28;19925;-75
2022/04/07 00:45:27;;;;;;;;;;;10.40;99.90;;;;;;5048871;28;19928;-73
2022/04/07 00:47:53;;;;;;;;;;;10.30;99.90;;;;;;5049630;28;19929;-73
2022/04/07 00:50:21;;;;;;;;;;;10.40;99.90;;;;;;5049714;28;19990;-74
2022/04/07 00:52:50;;;;;;;;;;;10.40;99.90;;;;;;5049722;28;19924;-75
2022/04/07 00:55:17;;;;;;;;;;;10.30;99.90;;;;;;5049119;28;19978;-75
2022/04/07 00:57:45;;;;;;;;;;;10.30;99.90;;;;;;5049669;28;20358;-75
2022/04/07 01:00:12;;;;;;;;;;;10.30;99.90;;;;;;5049161;28;20317;-73
2022/04/07 01:02:41;;;;;;;;;;;10.20;99.90;;;;;;5049727;28;19925;-74
2022/04/07 01:05:09;;;;;;;;;;;10.20;99.90;;;;;;5049395;28;19924;-73
2022/04/07 01:07:37;;;;;;;;;;;10.20;99.90;;;;;;5049428;28;19932;-75
2022/04/07 01:10:05;;;;;;;;;;;10.10;99.90;;;;;;5048937;28;19928;-74
2022/04/07 01:12:31;;;;;;;;;;;10.10;99.90;;;;;;5049470;28;20439;-74
2022/04/07 01:15:00;;;;;;;;;;;10.20;99.90;;;;;;5048524;28;19928;-75
2022/04/07 01:17:26;;;;;;;;;;;10.20;99.90;;;;;;5049578;28;19925;-75
2022/04/07 01:19:55;;;;;;;;;;;10.30;99.90;;;;;;5049184;28;19994;-74
2022/04/07 01:22:22;;;;;;;;;;;10.30;99.90;;;;;;5049151;28;19925;-72
2022/04/07 01:24:50;;;;;;;;;;;10.30;99.90;;;;;;5048600;28;19924;-75
2022/04/07 01:27:17;;;;;;;;;;;10.30;99.90;;;;;;5049056;28;19925;-74
2022/04/07 01:29:44;;;;;;;;;;;10.30;99.90;;;;;;5048497;28;20356;-75
2022/04/07 01:32:12;;;;;;;;;;;10.30;99.90;;;;;;5049206;28;20292;-74
2022/04/07 01:34:39;;;;;;;;;;;10.30;99.90;;;;;;5048785;28;20353;-74
2022/04/07 01:37:07;;;;;;;;;;;10.30;99.90;;;;;;5049113;28;19924;-74
2022/04/07 01:39:34;;;;;;;;;;;10.30;99.90;;;;;;5048971;28;20118;-74
2022/04/07 01:42:03;;;;;;;;;;;10.30;99.90;;;;;;5048604;28;19928;-75
2022/04/07 01:44:30;;;;;;;;;;;10.30;99.90;;;;;;5049016;28;19928;-74
2022/04/07 01:46:57;;;;;;;;;;;10.30;99.90;;;;;;5049006;28;19929;-75
2022/04/07 01:49:24;;;;;;;;;;;10.30;99.90;;;;;;5047875;28;19937;-74
2022/04/07 01:51:51;;;;;;;;;;;10.30;99.90;;;;;;5048448;28;20043;-74
2022/04/07 01:54:18;;;;;;;;;;;10.30;99.90;;;;;;5048965;28;19929;-74
2022/04/07 01:56:45;;;;;;;;;;;;;;;;;;5048440;28;20391;-75
2022/04/07 01:59:14;;;;;;;;;;;10.20;99.90;;;;;;5055498;28;19978;-75
2022/04/07 02:01:41;;;;;;;;;;;10.20;99.90;;;;;;5058844;28;19932;-72
2022/04/07 02:04:07;;;;;;;;;;;10.30;99.90;;;;;;5052374;28;19992;-75
2022/04/07 02:06:34;;;;;;;;;;;10.20;99.90;;;;;;5052566;28;20281;-74
2022/04/07 02:09:02;;;;;;;;;;;10.20;99.90;;;;;;5052408;28;20023;-74
2022/04/07 02:11:30;;;;;;;;;;;10.20;99.90;;;;;;5052004;28;19947;-75
2022/04/07 02:13:57;;;;;;;;;;;10.20;99.90;;;;;;5051515;28;20388;-73
2022/04/07 02:16:27;;;;;;;;;;;10.20;99.90;;;;;;5051708;28;19925;-75
2022/04/07 02:18:54;;;;;;;;;;;10.20;99.90;;;;;;5052362;28;19928;-75
2022/04/07 02:21:21;;;;;;;;;;;10.10;99.90;;;;;;5052434;28;19975;-74
2022/04/07 02:23:47;;;;;;;;;;;10.10;99.90;;;;;;5050742;28;20384;-75
2022/04/07 02:26:15;;;;;;;;;;;10.10;99.90;;;;;;5052193;28;19951;-74
2022/04/07 02:28:42;;;;;;;;;;;10.00;99.90;;;;;;5051841;28;20392;-73
2022/04/07 02:31:09;;;;;;;;;;;10.00;99.90;;;;;;5051469;28;20342;-74
2022/04/07 02:33:38;;;;;;;;;;;10.00;99.90;;;;;;5051652;28;19928;-75
2022/04/07 02:36:05;;;;;;;;;;;10.00;99.90;;;;;;5052100;28;19932;-75
2022/04/07 02:38:32;;;;;;;;;;;10.00;99.90;;;;;;5051635;28;20396;-75
2022/04/07 02:40:59;;;;;;;;;;;;;;;;;;5051403;28;19928;-74
2022/04/07 02:43:26;;;;;;;;;;;10.00;99.90;;;;;;5051683;28;19983;-75
2022/04/07 02:45:53;;;;;;;;;;;10.10;99.90;;;;;;5051330;28;20368;-73
2022/04/07 02:48:20;;;;;;;;;;;10.10;99.90;;;;;;5051537;28;20434;-74
2022/04/07 02:50:48;;;;;;;;;;;10.10;99.90;;;;;;5051802;28;19929;-75
2022/04/07 02:53:15;;;;;;;;;;;10.10;99.90;;;;;;5051234;28;19978;-74
2022/04/07 02:55:42;;;;;;;;;;;10.10;99.90;;;;;;5051084;28;20011;-74
2022/04/07 02:58:08;;;;;;;;;;;10.10;99.90;;;;;;5051257;28;19933;-73
2022/04/07 03:00:35;;;;;;;;;;;10.00;99.90;;;;;;5050972;28;19994;-74
2022/04/07 03:03:02;;;;;;;;;;;10.00;99.90;;;;;;5051468;28;19925;-74
2022/04/07 03:05:29;;;;;;;;;;;10.00;99.90;;;;;;5050987;28;19924;-74
2022/04/07 03:07:58;;;;;;;;;;;10.00;99.90;;;;;;5050698;28;19932;-73
2022/04/07 03:10:25;;;;;;;;;;;10.00;99.90;;;;;;5051133;28;19994;-73
2022/04/07 03:12:51;;;;;;;;;;;9.90;99.90;;;;;;5050381;28;19929;-75
2022/04/07 03:15:18;;;;;;;;;;;9.90;99.90;;;;;;5050889;28;19978;-75
2022/04/07 03:17:45;;;;;;;;;;;;;;;;;;5051053;28;19929;-74
2022/04/07 03:20:12;;;;;;;;;;;9.90;99.90;;;;;;5050819;28;19929;-74
2022/04/07 03:22:39;;;;;;;;;;;10.00;99.90;;;;;;5051848;28;19924;-73
2022/04/07 03:25:08;;;;;;;;;;;10.00;99.90;;;;;;5061662;28;19928;-74
2022/04/07 03:27:35;;;;;;;;;;;10.00;99.90;;;;;;5051016;28;20411;-73
2022/04/07 03:30:03;;;;;;;;;;;10.00;99.90;;;;;;5049631;28;19925;-74
2022/04/07 03:32:30;;;;;;;;;;;10.00;99.90;;;;;;5050482;28;19932;-74
2022/04/07 03:34:57;;;;;;;;;;;10.00;99.90;;;;;;5049942;28;19991;-75
2022/04/07 03:37:23;;;;;;;;;;;10.00;99.90;;;;;;5050448;28;19925;-76
2022/04/07 03:39:50;;;;;;;;;;;10.00;99.90;;;;;;5050287;28;19925;-74
2022/04/07 03:42:18;;;;;;;;;;;10.00;99.90;;;;;;5050375;28;19932;-75
2022/04/07 03:44:45;;;;;;;;;;;10.10;99.90;;;;;;5050188;28;19929;-75
2022/04/07 03:47:12;;;;;;;;;;;10.10;99.90;;;;;;5049568;28;19925;-74
2022/04/07 03:49:39;;;;;;;;;;;10.10;99.90;;;;;;5049786;28;19979;-73
2022/04/07 03:52:06;;;;;;;;;;;10.20;99.90;;;;;;5049471;28;20481;-75
2022/04/07 03:54:33;;;;;;;;;;;10.20;99.90;;;;;;5042735;28;19956;-73
2022/04/07 03:56:59;;;;;;;;;;;10.20;99.90;;;;;;5049492;28;20375;-75
2022/04/07 03:59:29;;;;;;;;;;;10.20;99.90;;;;;;5049932;28;19925;-73
2022/04/07 04:01:56;;;;;;;;;;;;;;;;;;5050293;28;19925;-75
2022/04/07 04:04:23;;;;;;;;;;;10.10;99.90;;;;;;5049564;28;19975;-74
2022/04/07 04:06:50;;;;;;;;;;;10.10;99.90;;;;;;5049737;28;20310;-74
2022/04/07 04:09:17;;;;;;;;;;;10.10;99.90;;;;;;5049903;28;19929;-73
2022/04/07 04:11:44;;;;;;;;;;;10.20;99.90;;;;;;5050217;28;20351;-74
2022/04/07 04:14:10;;;;;;;;;;;10.20;99.90;;;;;;5049681;28;19929;-73
2022/04/07 04:16:39;;;;;;;;;;;10.20;99.90;;;;;;5050430;28;19928;-75
2022/04/07 04:19:06;;;;;;;;;;;;;;;;;;5049808;28;19936;-75
2022/04/07 04:21:32;;;;;;;;;;;10.30;99.90;;;;;;5049415;28;19970;-75
2022/04/07 04:23:59;;;;;;;;;;;10.30;99.90;;;;;;5049548;28;19928;-75
2022/04/07 04:26:26;;;;;;;;;;;10.40;99.90;;;;;;5049923;28;19925;-75
2022/04/07 04:28:53;;;;;;;;;;;10.30;99.90;;;;;;5049697;28;20303;-73
2022/04/07 04:31:24;;;;;;;;;;;10.30;99.90;;;;;;5050191;28;19928;-74
2022/04/07 04:33:52;;;;;;;;;;;10.40;99.90;;;;;;5049762;28;19924;-75
2022/04/07 04:36:19;;;;;;;;;;;10.40;99.90;;;;;;5049825;28;19968;-73
2022/04/07 04:38:46;;;;;;;;;;;10.40;99.90;;;;;;5049905;28;19935;-74
2022/04/07 04:41:12;;;;;;;;;;;10.40;99.90;;;;;;5049673;28;19929;-75
2022/04/07 04:43:40;;;;;;;;;;;;;;;;;;5049374;28;19925;-73
2022/04/07 04:46:07;;;;;;;;;;;10.20;99.90;;;;;;5049985;28;20400;-74
2022/04/07 04:48:34;;;;;;;;;;;10.10;99.90;;;;;;5049898;28;19925;-74
2022/04/07 04:51:03;;;;;;;;;;;10.00;99.90;;;;;;5049444;28;20335;-75
2022/04/07 04:53:30;;;;;;;;;;;9.90;99.90;;;;;;5049643;28;19929;-75
2022/04/07 04:55:56;;;;;;;;;;;9.80;99.90;;;;;;5049516;28;19925;-74
2022/04/07 04:58:23;;;;;;;;;;;9.70;99.90;;;;;;5049555;28;19929;-75
2022/04/07 05:00:51;;;;;;;;;;;9.60;99.90;;;;;;5048962;28;19986;-75
2022/04/07 05:03:17;;;;;;;;;;;9.60;99.90;;;;;;5045316;28;19925;-75
2022/04/07 05:05:44;;;;;;;;;;;9.60;99.90;;;;;;5049109;28;19925;-73
2022/04/07 05:08:13;;;;;;;;;;;9.50;99.90;;;;;;5049556;28;19998;-74
2022/04/07 05:10:40;;;;;;;;;;;9.50;99.90;;;;;;5049151;28;19925;-75
2022/04/07 05:13:07;;;;;;;;;;;9.50;99.90;;;;;;5049816;28;19925;-74
2022/04/07 05:15:35;;;;;;;;;;;9.50;99.90;;;;;;5049339;28;19925;-75
2022/04/07 05:18:02;;;;;;;;;;;9.60;99.90;;;;;;5049736;28;19931;-74
2022/04/07 05:20:29;;;;;;;;;;;9.60;99.90;;;;;;5049182;28;19925;-73
2022/04/07 05:22:56;;;;;;;;;;;9.60;99.90;;;;;;5049388;28;20315;-75
2022/04/07 05:25:25;;;;;;;;;;;9.60;99.90;;;;;;5049403;28;19925;-73
2022/04/07 05:27:51;;;;;;;;;;;9.70;99.90;;;;;;5050293;28;20346;-80
2022/04/07 05:30:18;;;;;;;;;;;9.70;99.90;;;;;;5049988;28;19936;-75
2022/04/07 05:32:46;;;;;;;;;;;9.70;99.90;;;;;;5056874;28;20350;-74
2022/04/07 05:35:13;;;;;;;;;;;9.70;99.90;;;;;;5050734;28;19925;-73
2022/04/07 05:37:40;;;;;;;;;;;9.70;99.90;;;;;;5060875;28;19924;-73
2022/04/07 05:40:10;;;;;;;;;;;9.60;99.90;;;;;;5053044;28;19940;-75
2022/04/07 05:42:38;;;;;;;;;;;9.50;99.90;;;;;;5053351;28;20488;-74
2022/04/07 05:45:05;;;;;;;;;;;9.40;99.90;;;;;;5052929;28;19929;-74
2022/04/07 05:47:38;;;;;;;;;;;9.40;99.90;;;;;;5051601;28;19924;-75
2022/04/07 05:50:06;;;;;;;;;;;9.40;99.90;;;;;;5060703;28;20559;-73
2022/04/07 05:52:32;;;;;;;;;;;9.20;99.90;;;;;;5053896;28;19976;-74
2022/04/07 05:54:59;;;;;;;;;;;9.00;99.90;;;;;;5053697;28;19979;-73
2022/04/07 05:57:26;;;;;;;;;;;8.90;99.90;;;;;;5053211;28;19925;-75
2022/04/07 05:59:55;;;;;;;;;;;8.80;99.90;;;;;;5053881;28;19925;-74
2022/04/07 06:02:21;;;;;;;;;;;8.70;99.90;;;;;;5053259;28;19933;-73
2022/04/07 06:04:48;;;;;;;;;;;8.70;99.90;;;;;;5052251;28;19979;-75
2022/04/07 06:07:15;;;;;;;;;;;8.70;99.90;;;;;;5055223;28;19948;-74
2022/04/07 06:09:42;;;;;;;;;;;8.80;99.90;;;;;;5053517;28;20351;-75
2022/04/07 06:12:09;;;;;;;;;;;8.80;99.90;;;;;;5051625;28;19929;-75
2022/04/07 06:14:36;;;;;;;;;;;8.90;99.90;;;;;;5051942;28;20414;-75
2022/04/07 06:17:04;;;;;;;;;;;8.90;99.90;;;;;;5062780;28;19943;-73
2022/04/07 06:19:31;;;;;;;;;;;9.10;99.90;;;;;;5057376;28;20063;-74
2022/04/07 06:21:58;;;;;;;;;;;9.10;99.90;;;;;;5052481;28;19928;-74
2022/04/07 06:24:25;;;;;;;;;;;9.10;99.90;;;;;;5052315;28;19971;-73
2022/04/07 06:26:52;;;;;;;;;;;9.10;99.90;;;;;;5052463;28;19975;-75
2022/04/07 06:29:18;;;;;;;;;;;9.20;99.90;;;;;;5052353;28;19924;-75
2022/04/07 06:31:45;;;;;;;;;;;9.30;99.90;;;;;;5052271;28;19925;-75
2022/04/07 06:34:13;;;;;;;;;;;9.30;99.90;;;;;;5051607;28;19928;-75
2022/04/07 06:36:40;;;;;;;;;;;9.20;99.90;;;;;;5052245;28;19931;-75
2022/04/07 06:39:07;;;;;;;;;;;9.20;99.90;;;;;;5051811;28;19986;-75
2022/04/07 06:41:34;;;;;;;;;;;9.20;99.90;;;;;;5055345;28;20024;-76
2022/04/07 06:44:02;;;;;;;;;;;9.20;99.90;;;;;;5057027;28;19925;-75
2022/04/07 06:46:29;;;;;;;;;;;9.30;99.90;;;;;;5051849;28;19925;-75
2022/04/07 06:48:56;;;;;;;;;;;9.40;99.90;;;;;;5051864;28;20293;-75
2022/04/07 06:51:24;;;;;;;;;;;;;;;;;;5051837;28;20363;-76
2022/04/07 06:53:52;;;;;;;;;;;9.50;99.90;;;;;;5051513;28;19978;-76
2022/04/07 06:56:19;;;;;;;;;;;9.60;99.90;;;;;;5051691;28;20316;-75
2022/04/07 06:58:45;;;;;;;;;;;9.70;99.90;;;;;;5051541;28;19925;-75
2022/04/07 07:01:12;;;;;;;;;;;9.80;99.90;;;;;;5051706;28;19925;-76
2022/04/07 07:03:39;;;;;;;;;;;9.80;99.90;;;;;;5051459;28;19970;-75
2022/04/07 07:06:06;;;;;;;;;;;9.80;99.90;;;;;;5051848;28;19928;-75
2022/04/07 07:08:32;;;;;;;;;;;9.60;99.90;;;;;;5051775;28;19987;-76
2022/04/07 07:11:01;;;;;;;;;;;9.50;99.90;;;;;;5052026;28;19963;-76
2022/04/07 07:13:28;;;;;;;;;;;;;;;;;;5053282;28;19955;-78
2022/04/07 07:15:57;;;;;;;;;;;9.50;99.90;;;;;;5051530;28;19978;-76
2022/04/07 07:18:24;;;;;;;;;;;9.50;99.90;;;;;;5053344;28;19925;-76
2022/04/07 07:20:50;;;;;;;;;;;9.60;99.90;;;;;;5050835;28;19924;-77
2022/04/07 07:23:18;;;;;;;;;;;9.70;99.90;;;;;;5051326;28;20133;-76
2022/04/07 07:25:45;;;;;;;;;;;9.90;99.90;;;;;;5050805;28;20036;-78
2022/04/07 07:28:13;;;;;;;;;;;10.00;99.90;;;;;;5051036;28;19932;-75
2022/04/07 07:30:40;;;;;;;;;;;10.20;99.90;;;;;;5050793;28;19979;-76
2022/04/07 07:33:07;;;;;;;;;;;10.10;99.90;;;;;;5051059;28;19928;-77
2022/04/07 07:35:34;;;;;;;;;;;10.00;99.90;;;;;;5050647;28;19924;-76
2022/04/07 07:38:03;;;;;;;;;;;9.90;99.90;;;;;;5051528;28;19928;-75
2022/04/07 07:40:30;;;;;;;;;;;9.90;99.90;;;;;;5058361;28;19924;-76
2022/04/07 07:42:59;;;;;;;;;;;10.00;99.90;;;;;;5071052;28;19924;-77
2022/04/07 07:45:28;;;;;;;;;;;10.10;99.90;;;;;;5070342;28;19974;-77
2022/04/07 07:47:55;;;;;;;;;;;10.20;99.90;;;;;;5070492;28;19928;-77
2022/04/07 07:50:22;;;;;;;;;;;10.40;99.90;;;;;;5070642;28;19989;-76
2022/04/07 07:52:49;;;;;;;;;;;10.50;99.90;;;;;;5070682;28;19932;-77
2022/04/07 07:55:16;;;;;;;;;;;10.50;99.90;;;;;;5069084;28;19925;-76
2022/04/07 07:57:43;;;;;;;;;;;10.50;99.90;;;;;;5064634;28;20473;-76
2022/04/07 08:00:10;;;;;;;;;;;10.40;99.90;;;;;;5059901;28;19925;-76
2022/04/07 08:02:39;;;;;;;;;;;10.20;99.90;;;;;;5060490;28;19974;-76
2022/04/07 08:05:07;;;;;;;;;;;9.70;99.90;;;;;;5050260;28;19925;-76
2022/04/07 08:07:33;;;;;;;;;;;9.60;99.90;;;;;;5050403;28;19932;-76
2022/04/07 08:10:01;;;;;;;;;;;9.70;99.90;;;;;;5049557;28;20009;-77
2022/04/07 08:12:28;;;;;;;;;;;9.90;99.90;;;;;;5050405;28;20123;-76
2022/04/07 08:14:55;;;;;;;;;;;10.00;99.90;;;;;;5049858;28;20002;-76
2022/04/07 08:17:22;;;;;;;;;;;10.10;99.90;;;;;;5050057;28;19979;-76
2022/04/07 08:19:50;;;;;;;;;;;10.40;99.90;;;;;;5049922;28;19929;-76
2022/04/07 08:22:17;;;;;;;;;;;10.50;99.90;;;;;;5050008;28;20354;-76
2022/04/07 08:24:44;;;;;;;;;;;10.70;99.90;;;;;;5049890;28;20024;-76
2022/04/07 08:27:12;;;;;;;;;;;10.80;99.90;;;;;;5050287;28;19974;-76
2022/04/07 08:29:39;;;;;;;;;;;;;;;;;;5049737;28;19929;-77
2022/04/07 08:32:06;;;;;;;;;;;11.10;99.90;;;;;;5049988;28;19929;-77
2022/04/07 08:34:34;;;;;;;;;;;11.00;99.90;;;;;;5049533;28;19925;-77
2022/04/07 08:37:01;;;;;;;;;;;;;;;;;;5050003;28;19936;-78
2022/04/07 08:39:30;;;;;;;;;;;10.70;99.90;;;;;;5049579;28;19925;-77
2022/04/07 08:41:57;;;;;;;;;;;;;;;;;;5050054;28;19931;-77
2022/04/07 08:44:31;;;;;;;;;;;10.40;99.90;;;;;;5049411;28;19947;-77
2022/04/07 08:46:58;;;;;;;;;;;;;;;;;;5050235;28;19928;-77
2022/04/07 08:49:25;;;;;;;;;;;;;;;;;;5049358;28;19925;-77
2022/04/07 08:51:52;;;;;;;;;;;10.70;99.90;;;;;;5049919;28;19928;-76
2022/04/07 08:54:19;;;;;;;;;;;;;;;;;;5049527;28;19974;-75
2022/04/07 08:56:48;;;;;;;;;;;10.90;99.90;;;;;;5050896;28;19932;-77
2022/04/07 08:59:15;;;;;;;;;;;11.20;99.90;;;;;;5049488;28;20311;-77
2022/04/07 09:01:42;;;;;;;;;;;11.50;99.90;;;;;;5049512;28;20355;-77
2022/04/07 09:04:11;;;;;;;;;;;11.60;99.90;;;;;;5049084;28;19982;-77
2022/04/07 09:06:39;;;;;;;;;;;11.70;99.90;;;;;;5050865;28;19929;-77
2022/04/07 09:09:06;;;;;;;;;;;;;;;;;;5053605;28;19925;-77
2022/04/07 09:11:36;;;;;;;;;;;12.10;99.90;;;;;;5053632;28;19978;-77
2022/04/07 09:14:03;;;;;;;;;;;;;;;;;;5052950;28;19936;-75
2022/04/07 09:16:32;;;;;;;;;;;11.60;99.90;;;;;;5053464;28;19928;-77
2022/04/07 09:19:00;;;;;;;;;;;11.40;99.90;;;;;;5053594;28;20486;-76
2022/04/07 09:21:27;;;;;;;;;;;;;;;;;;5053773;28;19925;-76
2022/04/07 09:23:54;;;;;;;;;;;;;;;;;;5056512;28;19930;-75
2022/04/07 09:26:21;;;;;;;;;;;;;;;;;;5062864;28;19964;-77
2022/04/07 09:28:49;;;;;;;;;;;11.80;99.90;;;;;;5053546;28;19929;-76
2022/04/07 09:31:16;;;;;;;;;;;11.80;99.90;;;;;;5053972;28;19924;-77
2022/04/07 09:33:43;;;;;;;;;;;;;;;;;;5053082;28;19924;-77
2022/04/07 09:36:19;;;;;;;;;;;11.80;99.90;;;;;;5053358;28;19925;-77
2022/04/07 09:38:46;;;;;;;;;;;;;;;;;;5053079;28;19925;-76
2022/04/07 09:41:14;;;;;;;;;;;11.70;99.90;;;;;;5053239;28;19951;-76
2022/04/07 09:43:45;;;;;;;;;;;11.60;99.90;;;;;;5052787;28;19932;-76
2022/04/07 09:46:12;;;;;;;;;;;11.50;99.90;;;;;;5053006;28;19983;-77
2022/04/07 09:48:39;;;;;;;;;;;;;;;;;;5052885;28;19936;-77
2022/04/07 09:51:07;;;;;;;;;;;11.10;99.90;;;;;;5053493;28;20347;-76
2022/04/07 09:53:39;;;;;;;;;;;10.90;99.90;;;;;;5062143;28;20023;-77
2022/04/07 09:56:07;;;;;;;;;;;10.80;99.90;;;;;;5072822;28;19924;-77
2022/04/07 09:58:34;;;;;;;;;;;10.70;99.90;;;;;;5072864;28;19932;-74
2022/04/07 10:01:02;;;;;;;;;;;10.60;99.90;;;;;;5051433;28;19925;-74
2022/04/07 10:03:30;;;;;;;;;;;10.50;99.90;;;;;;5049072;28;19933;-77
2022/04/07 10:05:57;;;;;;;;;;;;;;;;;;5052267;28;19956;-77
2022/04/07 10:08:25;;;;;;;;;;;10.30;99.90;;;;;;5052722;28;19925;-77
2022/04/07 10:10:53;;;;;;;;;;;9.70;99.90;;;;;;5052940;28;20027;-75
2022/04/07 10:13:21;;;;;;;;;;;;;;;;;;5061295;28;19925;-74
2022/04/07 10:15:48;;;;;;;;;;;;;;;;;;5052939;28;19952;-74
2022/04/07 10:18:20;;;;;;;;;;;9.30;99.90;;;;;;5051596;28;19932;-74
2022/04/07 10:20:47;;;;;;;;;;;;;;;;;;5051968;28;19929;-75
2022/04/07 10:23:24;;;;;;;;;;;9.20;99.90;;;;;;5052227;28;20422;-76
2022/04/07 10:25:51;;;;;;;;;;;9.30;99.90;;;;;;5052199;28;19925;-74
2022/04/07 10:28:19;;;;;;;;;;;;;;;;;;5051729;28;19974;-75
2022/04/07 10:30:51;;;;;;;;;;;9.40;99.90;;;;;;5051660;28;19925;-74
2022/04/07 10:33:34;;;;;;;;;;;9.90;99.90;;;;;;5052048;28;19925;-74
2022/04/07 10:36:01;;;;;;;;;;;10.00;99.90;;;;;;5052151;28;19924;-74
2022/04/07 10:38:38;;;;;;;;;;;10.00;99.90;;;;;;5051892;28;20039;-75
2022/04/07 10:41:05;;;;;;;;;;;10.00;99.90;;;;;;5051680;28;20003;-75
2022/04/07 10:43:37;;;;;;;;;;;10.10;99.90;;;;;;5051885;28;19969;-75
2022/04/07 10:46:19;;;;;;;;;;;10.30;99.90;;;;;;5051678;28;20334;-77
2022/04/07 10:48:49;;;;;;;;;;;10.70;99.90;;;;;;5051824;28;20015;-74
2022/04/07 10:51:16;;;;;;;;;;;10.80;99.90;;;;;;5051398;28;19928;-74
2022/04/07 10:53:57;;;;;;;;;;;11.10;99.90;;;;;;5053365;28;19947;-74
2022/04/07 10:56:25;;;;;;;;;;;11.10;99.90;;;;;;5060657;28;20366;-74
2022/04/07 10:58:54;;;;;;;;;;;11.10;99.90;;;;;;5062284;28;19932;-74
2022/04/07 11:01:51;;;;;;;;;;;11.20;99.90;;;;;;5055407;28;19979;-74
2022/04/07 11:04:45;;;;;;;;;;;11.30;99.90;;;;;;5051448;28;20008;-75
2022/04/07 11:07:15;;;;;;;;;;;11.60;99.90;;;;;;5058519;28;19925;-74
2022/04/07 11:09:49;;;;;;;;;;;11.80;99.90;;;;;;5057647;28;20410;-75
2022/04/07 11:12:17;;;;;;;;;;;12.10;99.90;;;;;;5068726;28;19995;-74
2022/04/07 11:14:44;;;;;;;;;;;12.30;99.90;;;;;;5056644;28;20346;-74
2022/04/07 11:17:14;;;;;;;;;;;12.00;99.90;;;;;;5063786;28;19928;-74
2022/04/07 11:19:45;;;;;;;;;;;11.90;99.90;;;;;;5071617;28;19982;-75
2022/04/07 11:22:14;;;;;;;;;;;12.00;99.90;;;;;;5071472;28;19924;-75
2022/04/07 11:24:44;;;;;;;;;;;11.90;99.90;;;;;;5070719;28;19970;-75
2022/04/07 11:27:29;;;;;;;;;;;11.90;99.90;;;;;;5071190;28;19924;-77
2022/04/07 11:30:03;;;;;;;;;;;12.10;99.90;;;;;;5061499;28;19925;-76
2022/04/07 11:32:30;;;;;;;;;;;12.20;99.90;;;;;;5061945;28;19931;-77
2022/04/07 11:35:11;;;;;;;;;;;12.30;99.90;;;;;;5070212;28;20055;-77
2022/04/07 11:37:41;;;;;;;;;;;12.40;99.90;;;;;;5071189;28;19924;-75
2022/04/07 11:40:08;;;;;;;;;;;12.60;99.90;;;;;;5070783;28;20382;-77
2022/04/07 11:42:35;;;;;;;;;;;12.80;99.90;;;;;;5069473;28;19985;-77
2022/04/07 11:45:02;;;;;;;;;;;13.00;99.90;;;;;;5054496;28;20312;-77
2022/04/07 11:47:31;;;;;;;;;;;14.40;99.90;;;;;;5060205;28;19924;-77
2022/04/07 11:49:58;;;;;;;;;;;16.50;99.90;;;;;;5058514;28;19931;-77
2022/04/07 11:52:27;;;;;;;;;;;17.30;99.90;;;;;;5065111;28;19935;-77
2022/04/07 11:54:55;;;;;;;;;;;17.90;99.90;;;;;;5070393;28;19925;-76
2022/04/07 11:57:23;;;;;;;;;;;17.60;99.90;;;;;;5070561;28;19935;-76
2022/04/07 11:59:50;;;;;;;;;;;;;;;;;;5060147;28;20411;-76
2022/04/07 12:02:22;;;;;;;;;;;15.70;99.90;;;;;;5059955;28;19925;-76
2022/04/07 12:04:49;;;;;;;;;;;;;;;;;;5061905;28;20016;-76
2022/04/07 12:07:15;;;;;;;;;;;14.60;99.90;;;;;;5059435;28;19955;-75
2022/04/07 12:09:42;;;;;;;;;;;16.30;99.90;;;;;;5059851;28;19932;-76
2022/04/07 12:12:12;;;;;;;;;;;16.40;99.90;;;;;;5058618;28;19928;-76
2022/04/07 12:14:42;;;;;;;;;;;16.00;99.90;;;;;;5069761;28;19931;-77
2022/04/07 12:17:09;;;;;;;;;;;15.60;99.90;;;;;;5070140;28;20003;-76
2022/04/07 12:19:37;;;;;;;;;;;;;;;;;;5070165;28;20174;-76
2022/04/07 12:22:04;;;;;;;;;;;14.90;99.90;;;;;;5070340;28;19924;-76
2022/04/07 12:24:30;;;;;;;;;;;14.80;99.90;;;;;;5070059;28;20350;-77
2022/04/07 12:26:58;;;;;;;;;;;;;;;;;;5069859;28;19931;-77
2022/04/07 12:29:30;;;;;;;;;;;16.40;99.90;;;;;;5066999;28;19976;-76
2022/04/07 12:31:57;;;;;;;;;;;;;;;;;;5055673;28;20040;-77
2022/04/07 12:34:24;;;;;;;;;;;;;;;;;;5052780;28;20310;-76
2022/04/07 12:36:52;;;;;;;;;;;;;;;;;;5049806;28;19990;-76
2022/04/07 12:39:20;;;;;;;;;;;13.70;99.90;;;;;;5049422;28;19939;-76
2022/04/07 12:41:49;;;;;;;;;;;;;;;;;;5059132;28;20414;-76
2022/04/07 12:44:17;;;;;;;;;;;15.70;99.90;;;;;;5051353;28;19931;-77
2022/04/07 12:46:44;;;;;;;;;;;;;;;;;;5052616;28;19956;-77
2022/04/07 12:49:11;;;;;;;;;;;;;;;;;;5053842;28;19925;-78
2022/04/07 12:51:39;;;;;;;;;;;;;;;;;;5047844;28;19925;-77
2022/04/07 12:54:06;;;;;;;;;;;;;;;;;;5051124;28;19935;-78
2022/04/07 12:56:33;;;;;;;;;;;;;;;;;;5050382;28;19925;-76
2022/04/07 12:59:03;;;;;;;;;;;14.90;99.90;;;;;;5051097;28;20434;-77
2022/04/07 13:01:30;;;;;;;;;;;;;;;;;;5051334;28;19931;-76
2022/04/07 13:03:57;;;;;;;;;;;16.20;99.90;;;;;;5049498;28;19924;-77
2022/04/07 13:06:24;;;;;;;;;;;;;;;;;;5049707;28;19925;-77
2022/04/07 13:08:51;;;;;;;;;;;;;;;;;;5049503;28;19979;-77
2022/04/07 13:11:18;;;;;;;;;;;;;;;;;;5051153;28;19936;-78
2022/04/07 13:13:45;;;;;;;;;;;;;;;;;;5058636;28;19981;-78
2022/04/07 13:16:12;;;;;;;;;;;;;;;;;;5054508;28;19986;-76
2022/04/07 13:18:39;;;;;;;;;;;;;;;;;;5046936;28;19986;-76
2022/04/07 13:21:06;;;;;;;;;;;;;;;;;;5048923;28;20392;-75
2022/04/07 13:23:33;;;;;;;;;;;;;;;;;;5049015;28;19990;-75
2022/04/07 13:26:01;;;;;;;;;;;16.10;99.90;;;;;;5049845;28;19925;-77
2022/04/07 13:28:28;;;;;;;;;;;;;;;;;;5049341;28;19929;-76
2022/04/07 13:30:56;;;;;;;;;;;15.50;99.90;;;;;;5049176;28;19971;-75
2022/04/07 13:33:23;;;;;;;;;;;;;;;;;;5049275;28;19929;-75
2022/04/07 13:35:51;;;;;;;;;;;;;;;;;;5049307;28;19968;-76
2022/04/07 13:38:17;;;;;;;;;;;15.70;99.90;;;;;;5048723;28;19947;-75
2022/04/07 13:40:47;;;;;;;;;;;;;;;;;;5051084;28;19928;-75
2022/04/07 13:43:14;;;;;;;;;;;;;;;;;;5049273;28;19925;-73
2022/04/07 13:45:44;;;;;;;;;;;15.10;99.90;;;;;;5048808;28;19925;-75
2022/04/07 13:48:12;;;;;;;;;;;;;;;;;;5049132;28;19994;-75
2022/04/07 13:50:39;;;;;;;;;;;;;;;;;;5049396;28;20024;-75
2022/04/07 13:53:06;;;;;;;;;;;;;;;;;;5050762;28;19928;-75
2022/04/07 13:55:33;;;;;;;;;;;;;;;;;;5052963;28;19931;-75
2022/04/07 13:58:00;;;;;;;;;;;13.30;99.90;;;;;;5052896;28;19928;-76
2022/04/07 14:00:27;;;;;;;;;;;13.10;99.90;;;;;;5052757;28;19924;-75
2022/04/07 14:02:54;;;;;;;;;;;;;;;;;;5051370;28;19963;-75
2022/04/07 14:05:23;;;;;;;;;;;13.00;99.90;;;;;;5051405;28;19924;-74
2022/04/07 14:07:50;;;;;;;;;;;12.90;99.90;;;;;;5052408;28;19925;-74
2022/04/07 14:10:17;;;;;;;;;;;12.90;99.90;;;;;;5047984;28;19925;-75
2022/04/07 14:12:44;;;;;;;;;;;12.60;99.90;;;;;;5051057;28;19928;-75
2022/04/07 14:15:11;;;;;;;;;;;12.50;99.90;;;;;;5084626;23;20288;-78
2022/04/07 14:17:40;;;;;;;;;;;;;;;;;;5084913;28;19928;-77
2022/04/07 14:20:08;;;;;;;;;;;11.40;99.90;;;;;;5087550;28;19928;-77
2022/04/07 14:22:36;;;;;;;;;;;10.90;99.90;;;;;;5086132;28;19962;-77
2022/04/07 14:25:03;;;;;;;;;;;10.30;99.90;;;;;;5082981;28;20307;-78
2022/04/07 14:27:30;;;;;;;;;;;9.80;99.90;;;;;;5081145;28;20452;-78
2022/04/07 14:29:57;;;;;;;;;;;;;;;;;;5074816;28;20379;-78
2022/04/07 14:32:24;;;;;;;;;;;;;;;;;;5074536;28;19925;-78
2022/04/07 14:34:50;;;;;;;;;;;8.70;99.90;;;;;;5075932;28;20394;-77
2022/04/07 14:37:17;;;;;;;;;;;8.40;99.90;;;;;;5073902;28;19970;-78
2022/04/07 14:39:46;;;;;;;;;;;8.70;99.90;;;;;;5067402;28;19930;-77
2022/04/07 14:42:12;;;;;;;;;;;9.30;99.90;;;;;;5074357;28;20322;-78
2022/04/07 14:44:39;;;;;;;;;;;9.60;99.90;;;;;;5074253;28;19924;-78
2022/04/07 14:47:06;;;;;;;;;;;9.80;99.90;;;;;;5073978;28;19924;-78